百度云资源分享吧

 找回密码
 立即注册
收藏本版 |订阅

立体3D电影下载 今日: 35 |主题: 359|排名: 5 

作者 回复/查看 最后发表
[BT下载]Milwood.2013.3D.1080p.BluRay.x264-VALUE 6.57GB attach_img 百度云资源 2016-6-29 0274 百度云资源 2016-6-29 11:00
[BT下载]Milwood.2013.3D.720p.BluRay.x264-VALUE 4.37GB attach_img 百度云资源 2016-6-29 0264 百度云资源 2016-6-29 11:00
[BT下载]大白鲨3[3D左右]Jaws.3D.1983.1080p.BluRay.x264-PSYCHD 9.83GB attach_img 百度云资源 2016-6-22 0405 百度云资源 2016-6-22 15:45
[BT磁链] [疯狂动物城].Zootopia.2016.1080p.Half-SBS.3D.BluRay.x264.DTS-WiKi[9.85G ... attach_img 百度云资源 2016-6-15 0561 百度云资源 2016-6-15 14:53
[BT下载]太空之旅/宇宙之旅[3D左右]Journey.to.Space.2015.3D.1080p.BluRay.x264-SPRi ... attach_img 百度云资源 2016-6-12 0466 百度云资源 2016-6-12 14:43
[BT下载]神战:权力之眼[3D左右]Gods.of.Egypt.2016.3D.1080p.BluRay.x264-PSYCHD 10.9 ... attach_img 百度云资源 2016-6-11 0430 百度云资源 2016-6-11 02:29
[BT下载]疯狂动物城[3D左右]Zootopia.2016.3D.1080p.BluRay.x264-PSYCHD 8.74GB ... . ... attach_img 百度云资源 2016-6-11 0409 百度云资源 2016-6-11 02:29
[BT下载]美国恐怖/恐怖行动 An.American.Terror.3D.2014.1080p.BluRay.x264-UNVEiL 6. ... attach_img 百度云资源 2016-6-1 0308 百度云资源 2016-6-1 13:30
[BT下载][美人鱼][左右格式].2016.3D.BluRay.1080p.HSBS.x264.TrueHD5.1.2Audios-CMCT ... attach_img 百度云资源 2016-5-31 0352 百度云资源 2016-5-31 13:25
[BT下载][美人鱼][上下格式].2016.3D.BluRay.1080p.HOU.x264.TrueHD5.1.2Audios-CMCT[ ... attach_img 百度云资源 2016-5-31 0262 百度云资源 2016-5-31 13:25
[BT下载]恶灵狂呼[3D左右]Poltergeist.Activity.2015.3D.1080p.BluRay.x264-VALUE 6.6 ... attach_img 百度云资源 2016-5-30 0227 百度云资源 2016-5-30 13:14
[BT下载]怒海救援[3D上下]2016.1080p.3D.BluRay.Half-OU.x264.DTS-HD.MA.HR.7.1-RARBG ... attach_img 百度云资源 2016-5-29 0213 百度云资源 2016-5-29 13:08
[BT下载]怒海救援[3D左右]2016.1080p.3D.BluRay.Half-SBS.x264.DTS-HD.MA.HR.7.1-RARB ... attach_img 百度云资源 2016-5-29 0313 百度云资源 2016-5-29 13:08
[BT下载]疯狂动物城[3D上下]2016.1080p.3D.BluRay.Half-OU.x264.DTS-HD.MA.7.1-RARBG ... attach_img 百度云资源 2016-5-29 0300 百度云资源 2016-5-29 13:08
[BT下载]疯狂动物城[3D左右]2016.1080p.3D.BluRay.Half-SBS.x264.DTS-HD.MA.7.1-RARBG ... attach_img 百度云资源 2016-5-29 0331 百度云资源 2016-5-29 13:08
[BT磁链][美人鱼].The.Mermaid.2016.1080p.Half-SBS.3D.BluRay.x264-WiKi[12.6G] ... ... attach_img 百度云资源 2016-5-28 0436 百度云资源 2016-5-28 13:05
[BT下载]死亡地堡/亡命地堡[3D左右]Bunker.of.the.Dead.2015.3D.1080p.BluRay.x264-VA ... attach_img 百度云资源 2016-5-28 0233 百度云资源 2016-5-28 13:05
[BT下载]死亡地堡/亡命地堡[3D左右]Bunker.of.the.Dead.2015.3D.720p.BluRay.x264-VAL ... attach_img 百度云资源 2016-5-28 0239 百度云资源 2016-5-28 13:05
[BT下载][神战:权力之眼][3D左右].2016.3D.BluRay.1080p.HSBS.x264.DTS.X.7.1-CMCT[1 ... attach_img 百度云资源 2016-5-26 0241 百度云资源 2016-5-26 12:51
[BT下载][神战:权力之眼][3D上下].2016.3D.BluRay.1080p.HOU.x264.DTS.X.7.1-CMCT[14 ... attach_img 百度云资源 2016-5-26 0260 百度云资源 2016-5-26 12:51
[BT下载]神战:权力之眼[3D上下]2016.1080p.3D.BluRay.Half-OU.x264.DTS-HD.MA.7.1-RAR ... attach_img 百度云资源 2016-5-21 0253 百度云资源 2016-5-21 12:25
[BT下载]神战:权力之眼[3D左右]2016.1080p.3D.BluRay.Half-SBS.x264.DTS-HD.MA.7.1-RA ... attach_img 百度云资源 2016-5-21 0306 百度云资源 2016-5-21 12:25
[BT下载]偷车贼[3D左右]Boost.2016.3D.1080p.BluRay.x264-VALUE 6.55GB attach_img 百度云资源 2016-5-15 0262 百度云资源 2016-5-15 11:51
[BT下载]偷车贼[3D左右]Boost.3D.2016.720p.BluRay.x264-VALUE 4.37GB attach_img 百度云资源 2016-5-15 0273 百度云资源 2016-5-15 11:51
医院2[3D左右][BT下载]The.Hospital.2.3D.2015.1080p.BluRay.x264-UNVEiL 6.55GB ... ... attach_img 百度云资源 2016-5-8 0403 百度云资源 2016-5-8 11:02
[BT下载]医院[3D左右]The.Hospital.3D.2013.1080p.BluRay.x264-UNVEiL 5.46GB attach_img 百度云资源 2016-5-8 0235 百度云资源 2016-5-8 11:02
[BT下载]鬼哭神嚎的房子[3D左右]The.Amityville.Playhouse.2015.3D.720p.BluRay.x264- ... attach_img 百度云资源 2016-5-6 0259 百度云资源 2016-5-6 10:46
[BT下载][九层妖塔(3D左右半宽)]2015.BluRay.1080p.HSBS.x264-CMCT[3D中文字幕/10.8G] ... attach_img 百度云资源 2016-5-3 0309 百度云资源 2016-5-3 10:36
[BT下载][九层妖塔(3D版上下半高)]2015.BluRay.1080p.HOU.x264-CMCT[3D中文字幕/10.8G ... attach_img 百度云资源 2016-5-3 0230 百度云资源 2016-5-3 10:36
九层妖塔[BT下载][3D左右 中字]2015.1080p.3D.BluRay.Half-SBS.x264.DD5.1-WiKi 10GB ... attach_img 百度云资源 2016-4-25 0354 百度云资源 2016-4-25 09:50
下一页 »

小黑屋|百度云资源分享吧 ( 京ICP备15014721号-2 )

本网站所有资源来自网络,如无意中侵犯了您的权益,请发邮件至 [email protected],立即清除相关链接

GMT+8, 2017-6-28 13:18 , Processed in 0.068862 second(s), 17 queries .

Powered by Discuz! X3.2

© 2001-2013 Comsenz Inc.

返回顶部 返回版块